Banquereau: Past 24 Hour Conditions

 

Blanc-Sablon Airport

02:00 PM AST 29 July 2014
This table is a summary of hourly weather conditions for the past 24 hours.
Date / Time
(AST)
Wind(knots) Conditions Visibility(km) Pressure(kPa) Air tempC) Relative humidity(%) Dew pointC) Humidex
29 July 2014
14:00 ESE 13 Cloudy 24 101.3 21 77 17 27
13:00 E 14 Cloudy 24 101.3 21 78 17 26
12:00 E 16 Cloudy 24 101.3 19 82 16 *
11:00 ESE 19 Cloudy 24 101.3 21 67 15 25
10:00 E 18 gust 25 Mostly Cloudy 24 101.3 20 69 14 *
9:00 E 15 Cloudy 24 101.4 20 64 13 *
8:00 ESE 16 Cloudy 24 101.4 20 60 12 *
7:00 E 16 Mostly Cloudy 24 101.4 20 52 10 *
6:00 E 8 Mostly Cloudy 24 101.5 18 67 12 *
5:00 ENE 8 Mostly Cloudy 24 101.4 17 67 11 *
4:00 E 7 Partly Cloudy 24 101.5 17 72 12 *
3:00 NE 7 Mainly Clear 24 101.5 17 77 12 *
2:00 ENE 5 Mainly Clear 24 101.5 17 78 13 *
1:00 ENE 5 Mainly Clear 24 101.5 18 76 14 *
0:00 SE 9 Mainly Clear 24 101.6 20 71 14 *
28 July 2014
23:00 ESE 10 Partly Cloudy 24 101.6 20 71 14 *
22:00 ENE 5 Mostly Cloudy 24 101.6 21 72 15 25
21:00 calm Mostly Cloudy 24 101.6 20 72 15 *
20:00 E 8 Mostly Cloudy 24 101.6 20 68 14 *
19:00 ESE 5 Mostly Cloudy 24 101.6 21 64 14 *
18:00 E 6 Partly Cloudy 24 101.6 22 59 14 25
17:00 SE 7 Mostly Cloudy 24 101.6 23 53 13 26
16:00 ESE 5 Mostly Cloudy 24 101.6 23 58 14 26
15:00 SSW 4 Mostly Cloudy 24 101.7 23 57 14 26
14:00 W 9 Mostly Cloudy 24 101.7 23 57 14 26
 
Map of Atlantic - Newfoundland marine weather areas Southwestern Grand Banks - 44138 Banquereau - 44139 Tail of the Bank - 44140 Nickerson Bank - 44251 Northeast Burgeo Bank - 44255 Blanc-Sablon Airport Cap Whittle Chevery Natashquan Airport Heath Point Miscou Island Grand Étang Ingonish Beach North Mountain St.Paul Island J.A. Douglas McCurdy Sydney Airport Charlottetown Airport East Point North Cape Argentia Bonavista Burgeo Cape Race Corner Brook Daniel's Harbour Englee Ferolle Point La Scie Port aux Basques Rocky Harbour Sagona Island St. Anthony Airport St. John's Int'l Airport St. Lawrence Stephenville Airport Twillingate Winterland Wreckhouse Cartwright Airport Mary's Harbour Grates Cove Pool's Island Marticot Island Long Pond Îles de la Madeleine Airport
Legend: buoyBuoy land stationLand Station